Aeroporto :
LOGIN :

Iscrizione | Disclaimer

   EN    FR    IT 

 










Sommario :    VFR   VFR Marginale   IFR   IFR Intensivo   IFR Molto Intensivo
Visibilità : 
Base nubi : 
>= 8 km
>= 3000ft
5 / 8 km
1000 / 3000 ft
1500m / 5 km
500 / 1000 ft
800 / 1500m
200 / 500 ft
< 800m
< 200 ft
Simboli :   Temporali  Nebbia  Neve Forte  Precipitazioni Forti  Vento > 20 kt
SIGMETs :   Varie  Temporali  Ghiacco  Turbolenza  Onda orograficha  Ceneri Vulcaniche






- Altitudine del aeroporto : 423 ft
- Codice IATA : PIS


LFBI - Poitiers

ULTIMO METAR :
  • 190730Z AUTO 15004KT 110V190 CAVOK 18/16 Q1013 TEMPO 4000 SHRA SCT012 BKN040CB

METARs OBSOLETI :
  • 190700Z AUTO 13005KT 100V160 CAVOK 17/16 Q1012 TEMPO 4000 SHRA SCT012 BKN040CB
  • 190630Z AUTO 13007KT 100V170 9999 FEW006 BKN150 17/16 Q1012 TEMPO 4000 SHRA SCT012 BKN040CB
  • 190600Z AUTO 16005KT CAVOK 17/16 Q1012 TEMPO 4000 SHRA SCT012 BKN040CB
  • 190530Z AUTO 15006KT 090V180 9999 -RA //////TCU 16/16 Q1012 TEMPO 4000 SHRA SCT012 BKN040CB
  • 190500Z AUTO VRB03KT CAVOK 16/16 Q1011 TEMPO VRB15G25KT 4000 SHRA SCT012 BKN040CB
  • 190430Z AUTO 10008KT 070V150 9999 -RA //////CB 16/16 Q1011 TEMPO VRB15G25KT 4000 SHRA BKN005 BKN020CB
  • 190400Z AUTO 14006KT 090V170 9999 -RA //////CB 17/16 Q1012 TEMPO VRB15G25KT 2000 TSRA BKN005 BKN020CB
  • 190330Z AUTO 14008KT 100V170 9999 -RA SCT006/// SCT086/// BKN100/// ///CB 17/16 Q1012 TEMPO VRB15G25KT 2000 TSRA BKN005 BKN020CB

TAF TAF LFBI
Valido dal 19 a 06 ore il 20 a 06 ore UTC


190500Z 1906/2006 VRB05KT 9999 SCT012 SCT045
TEMPO 1906/1922 4000 SHRA SCT012 BKN040CB
PROB30
TEMPO 1910/1918 VRB15G25KT 1500 TSRA SCT010 BKN020CB
BECMG 1923/2001 3000 BR BKN003
PROB40
TEMPO 2001/2006 0500 FG VV///



MetMap, La meteo Aeronautica in un colpo d'occhio ! - Copyright ORBIFLY Dicembre 2007 - Disclaimer

ORBIFLY MET'MAP TEAM :

Programmazione e sviluppo : Alexandra Zaïnal
Concezione : Baudouin d'Aumeries
Supporto tecnico e logistico : Manuel Goepfert
Aiuto : Marc-Olivier Méhu
Aiuto per la traduzione : Arnaldo La Scala




FONTI E CREDITI :

   NOAA